Time;durP1;ratioP1;P1;durP2;ratioP2;P2;SDS_P1;SDS_P2;PMS_P1;PMS_P2;Temp;Humidity;BMP_temperature;BMP_pressure;BME280_temperature;BME280_humidity;BME280_pressure;Samples;Min_cycle;Max_cycle;Signal;HPM_P1;HPM_P2
2023/03/04 00:00:46;;;;;;;101.60;49.93;;;6.00;99.90;;;;;;5027543;28;20401;-69
2023/03/04 00:03:14;;;;;;;101.15;50.08;;;5.90;99.90;;;;;;5027065;28;20022;-69
2023/03/04 00:05:40;;;;;;;106.93;49.75;;;5.90;99.90;;;;;;5026800;28;20098;-64
2023/03/04 00:08:05;;;;;;;104.57;50.60;;;5.80;99.90;;;;;;5027044;28;20109;-67
2023/03/04 00:10:31;;;;;;;107.47;49.73;;;6.00;99.90;;;;;;5027086;28;20121;-65
2023/03/04 00:12:56;;;;;;;97.63;48.03;;;6.00;99.90;;;;;;5026560;28;20104;-63
2023/03/04 00:15:22;;;;;;;109.20;50.90;;;5.90;99.90;;;;;;5026998;28;20032;-67
2023/03/04 00:17:47;;;;;;;102.30;47.47;;;5.80;99.90;;;;;;5027416;28;20044;-70
2023/03/04 00:20:13;;;;;;;106.00;49.00;;;5.90;99.90;;;;;;5027476;28;20029;-68
2023/03/04 00:22:39;;;;;;;102.37;49.57;;;5.80;99.90;;;;;;5026929;28;20056;-65
2023/03/04 00:25:05;;;;;;;103.53;47.40;;;5.80;99.90;;;;;;5026329;28;20334;-65
2023/03/04 00:27:30;;;;;;;115.85;51.50;;;5.80;99.90;;;;;;5026104;28;20041;-67
2023/03/04 00:29:56;;;;;;;113.00;51.40;;;5.80;99.90;;;;;;5026066;28;20048;-68
2023/03/04 00:32:22;;;;;;;110.37;48.80;;;5.80;99.90;;;;;;5026610;28;20520;-69
2023/03/04 00:34:48;;;;;;;105.33;48.43;;;5.80;99.90;;;;;;5027219;28;20076;-64
2023/03/04 00:37:13;;;;;;;110.22;49.95;;;5.90;99.90;;;;;;5026887;28;20033;-64
2023/03/04 00:39:39;;;;;;;107.20;50.07;;;5.90;99.90;;;;;;5026819;28;20083;-66
2023/03/04 00:42:05;;;;;;;101.47;49.77;;;5.80;99.90;;;;;;5026640;28;20312;-69
2023/03/04 00:44:30;;;;;;;120.77;52.47;;;5.90;99.90;;;;;;5026737;28;20025;-68
2023/03/04 00:46:56;;;;;;;111.50;51.20;;;5.80;99.90;;;;;;5026749;28;20045;-69
2023/03/04 00:49:22;;;;;;;113.50;53.87;;;5.70;99.90;;;;;;5026666;28;20021;-69
2023/03/04 00:51:47;;;;;;;105.27;51.30;;;5.80;99.90;;;;;;5025492;28;20041;-67
2023/03/04 00:54:13;;;;;;;106.30;50.30;;;5.80;99.90;;;;;;5026356;28;20026;-66
2023/03/04 00:56:38;;;;;;;108.20;49.13;;;5.90;99.90;;;;;;5026532;28;20022;-69
2023/03/04 00:59:04;;;;;;;99.00;48.10;;;5.80;99.90;;;;;;5026445;28;20033;-68
2023/03/04 01:01:30;;;;;;;110.70;48.83;;;5.80;99.90;;;;;;5025519;28;20057;-69
2023/03/04 01:03:55;;;;;;;110.80;49.43;;;5.80;99.90;;;;;;5026771;28;20122;-69
2023/03/04 01:06:21;;;;;;;101.17;48.27;;;5.90;99.90;;;;;;5026336;28;20448;-67
2023/03/04 01:08:46;;;;;;;101.50;49.10;;;5.80;99.90;;;;;;5027288;28;20030;-70
2023/03/04 01:11:12;;;;;;;98.20;48.53;;;5.80;99.90;;;;;;5026807;28;20041;-66
2023/03/04 01:13:38;;;;;;;104.47;49.07;;;5.70;99.90;;;;;;5026563;28;20021;-68
2023/03/04 01:16:05;;;;;;;104.63;50.45;;;5.80;99.90;;;;;;5026642;28;20276;-70
2023/03/04 01:18:30;;;;;;;98.47;48.30;;;5.80;99.90;;;;;;5025597;28;20529;-69
2023/03/04 01:20:56;;;;;;;104.73;50.87;;;5.80;99.90;;;;;;5026345;28;20136;-69
2023/03/04 01:23:21;;;;;;;99.40;48.03;;;5.70;99.90;;;;;;5026381;28;20459;-68
2023/03/04 01:25:47;;;;;;;102.97;50.73;;;5.70;99.90;;;;;;5026558;28;20046;-68
2023/03/04 01:28:13;;;;;;;106.10;47.77;;;5.70;99.90;;;;;;5025143;28;20125;-68
2023/03/04 01:30:38;;;;;;;104.13;50.00;;;5.80;99.90;;;;;;5025856;28;20114;-68
2023/03/04 01:33:04;;;;;;;113.47;50.80;;;5.90;99.90;;;;;;5024769;28;20723;-68
2023/03/04 01:35:29;;;;;;;102.67;51.00;;;6.00;99.90;;;;;;5026186;28;20026;-68
2023/03/04 01:37:55;;;;;;;107.63;50.03;;;6.00;99.90;;;;;;5026286;28;20029;-68
2023/03/04 01:40:21;;;;;;;109.83;51.27;;;5.90;99.90;;;;;;5026760;28;20056;-66
2023/03/04 01:42:46;;;;;;;102.25;50.65;;;5.90;99.90;;;;;;5027326;28;20033;-66
2023/03/04 01:45:18;;;;;;;106.20;50.60;;;5.80;99.90;;;;;;5029671;28;20102;-69
2023/03/04 01:47:47;;;;;;;101.35;49.13;;;5.90;99.90;;;;;;5029816;28;20303;-66
2023/03/04 01:50:19;;;;;;;102.60;49.75;;;5.90;99.90;;;;;;5029208;28;20028;-68
2023/03/04 01:52:45;;;;;;;107.43;49.38;;;5.90;99.90;;;;;;5029416;28;20029;-69
2023/03/04 01:55:19;;;;;;;104.10;50.73;;;5.80;99.90;;;;;;5029749;28;20052;-63
2023/03/04 01:57:46;;;;;;;104.82;50.75;;;5.90;99.90;;;;;;5029269;28;20397;-66
2023/03/04 02:00:32;;;;;;;106.35;50.50;;;5.80;99.90;;;;;;5029457;28;20342;-68
2023/03/04 02:03:03;;;;;;;113.18;53.20;;;5.80;99.90;;;;;;5029641;28;20026;-68
2023/03/04 02:05:29;;;;;;;104.82;51.15;;;5.70;99.90;;;;;;5028426;28;20493;-67
2023/03/04 02:07:56;;;;;;;108.80;51.65;;;5.80;99.90;;;;;;5030398;28;20029;-69
2023/03/04 02:10:22;;;;;;;111.40;49.88;;;5.80;99.90;;;;;;5030555;28;20637;-65
2023/03/04 02:12:48;;;;;;;111.63;53.17;;;5.90;99.90;;;;;;5030783;28;20041;-69
2023/03/04 02:15:14;;;;;;;112.18;52.28;;;5.90;99.90;;;;;;5029459;28;20041;-69
2023/03/04 02:17:40;;;;;;;109.20;50.97;;;5.90;99.90;;;;;;5030309;28;20035;-65
2023/03/04 02:20:32;;;;;;;110.53;53.67;;;5.90;99.90;;;;;;5030042;28;20096;-63
2023/03/04 02:23:10;;;;;;;109.25;52.22;;;5.80;99.90;;;;;;5029785;28;20045;-69
2023/03/04 02:25:45;;;;;;;113.55;53.00;;;5.70;99.90;;;;;;5029576;28;20034;-66
2023/03/04 02:28:10;;;;;;;114.63;53.33;;;5.80;99.90;;;;;;5030555;28;20116;-70
2023/03/04 02:30:36;;;;;;;110.77;52.00;;;5.90;99.90;;;;;;5029604;28;20800;-68
2023/03/04 02:33:02;;;;;;;114.53;52.27;;;5.90;99.90;;;;;;5029757;28;20506;-65
2023/03/04 02:35:27;;;;;;;111.87;53.83;;;5.90;99.90;;;;;;5028644;28;20421;-65
2023/03/04 02:37:53;;;;;;;104.20;50.07;;;5.90;99.90;;;;;;5029190;28;20021;-69
2023/03/04 02:40:29;;;;;;;102.13;49.23;;;5.90;99.90;;;;;;5029875;28;20025;-64
2023/03/04 02:42:59;;;;;;;107.78;52.65;;;5.90;99.90;;;;;;5029663;28;20017;-69
2023/03/04 02:45:41;;;;;;;105.05;51.05;;;6.00;99.90;;;;;;5029399;28;20533;-67
2023/03/04 02:48:07;;;;;;;114.00;51.50;;;5.90;99.90;;;;;;5029324;28;20451;-67
2023/03/04 02:50:39;;;;;;;111.85;52.30;;;5.90;99.90;;;;;;5029488;28;20025;-65
2023/03/04 02:53:05;;;;;;;129.50;55.83;;;6.00;99.90;;;;;;5028442;28;20022;-62
2023/03/04 02:55:31;;;;;;;110.33;52.30;;;5.90;99.90;;;;;;5029115;28;20040;-68
2023/03/04 02:57:57;;;;;;;108.38;52.67;;;5.90;99.90;;;;;;5029705;28;20021;-69
2023/03/04 03:00:22;;;;;;;110.75;50.35;;;6.00;99.90;;;;;;5028950;28;20052;-61
2023/03/04 03:02:48;;;;;;;111.13;51.70;;;6.00;99.90;;;;;;5029574;28;20075;-66
2023/03/04 03:05:14;;;;;;;115.22;53.47;;;6.10;99.90;;;;;;5029464;28;20461;-66
2023/03/04 03:07:39;;;;;;;113.20;52.83;;;5.90;99.90;;;;;;5029033;28;20033;-68
2023/03/04 03:10:05;;;;;;;100.43;50.80;;;5.90;99.90;;;;;;5029316;28;20260;-68
2023/03/04 03:12:31;;;;;;;107.70;52.58;;;5.90;99.90;;;;;;5029322;28;20030;-70
2023/03/04 03:14:56;;;;;;;101.33;50.17;;;6.00;99.90;;;;;;5029158;28;20032;-67
2023/03/04 03:17:22;;;;;;;107.33;51.63;;;6.00;99.90;;;;;;5029225;28;20051;-69
2023/03/04 03:19:47;;;;;;;107.83;51.00;;;6.00;99.90;;;;;;5028987;28;20033;-70
2023/03/04 03:22:13;;;;;;;106.83;51.40;;;6.00;99.90;;;;;;5027211;28;20041;-70
2023/03/04 03:24:38;;;;;;;103.57;50.63;;;6.00;99.90;;;;;;5028742;28;20496;-62
2023/03/04 03:27:04;;;;;;;104.30;49.33;;;5.90;99.90;;;;;;5028793;28;20041;-66
2023/03/04 03:29:30;;;;;;;101.43;49.90;;;5.80;99.90;;;;;;5028988;28;20029;-65
2023/03/04 03:31:55;;;;;;;108.30;52.47;;;5.80;99.90;;;;;;5027542;28;20563;-68
2023/03/04 03:34:22;;;;;;;100.88;49.63;;;5.90;99.90;;;;;;5029272;28;20555;-67
2023/03/04 03:36:47;;;;;;;109.00;50.75;;;5.90;99.90;;;;;;5028657;28;20022;-64
2023/03/04 03:39:14;;;;;;;102.75;48.75;;;5.80;99.90;;;;;;5028598;28;20434;-66
2023/03/04 03:41:40;;;;;;;104.07;49.67;;;5.70;99.90;;;;;;5028837;28;20040;-68
2023/03/04 03:44:06;;;;;;;108.63;49.85;;;5.80;99.90;;;;;;5028439;28;20029;-62
2023/03/04 03:46:32;;;;;;;102.28;49.03;;;5.80;99.90;;;;;;5028348;28;20049;-67
2023/03/04 03:48:57;;;;;;;103.63;50.03;;;5.80;99.90;;;;;;5028423;28;20116;-62
2023/03/04 03:51:23;;;;;;;105.07;49.60;;;5.80;99.90;;;;;;5028614;28;20029;-66
2023/03/04 03:53:48;;;;;;;107.87;51.03;;;5.80;99.90;;;;;;5028121;28;20071;-63
2023/03/04 03:56:14;;;;;;;110.63;51.17;;;5.80;99.90;;;;;;5028461;28;20033;-66
2023/03/04 03:58:40;;;;;;;107.27;49.10;;;5.80;99.90;;;;;;5028782;28;20811;-69
2023/03/04 04:01:05;;;;;;;107.30;49.87;;;5.70;99.90;;;;;;5026590;28;20828;-66
2023/03/04 04:03:31;;;;;;;106.50;48.67;;;5.80;99.90;;;;;;5028210;28;20025;-62
2023/03/04 04:05:56;;;;;;;104.83;50.03;;;5.90;99.90;;;;;;5027835;28;20072;-68
2023/03/04 04:08:22;;;;;;;99.17;50.00;;;5.80;99.90;;;;;;5027891;28;20017;-66
2023/03/04 04:10:47;;;;;;;102.57;50.17;;;5.90;99.90;;;;;;5028793;28;20123;-69
2023/03/04 04:13:13;;;;;;;105.30;49.33;;;5.80;99.90;;;;;;5028040;28;20390;-68
2023/03/04 04:15:39;;;;;;;107.93;49.23;;;5.80;99.90;;;;;;5028293;28;20064;-69
2023/03/04 04:18:07;;;;;;;95.20;46.27;;;5.90;99.90;;;;;;5027950;28;20036;-65
2023/03/04 04:20:34;;;;;;;99.82;48.65;;;5.80;99.90;;;;;;5028188;28;20022;-70
2023/03/04 04:23:00;;;;;;;101.78;49.22;;;5.90;99.90;;;;;;5027971;28;20021;-69
2023/03/04 04:25:26;;;;;;;101.35;48.10;;;5.90;99.90;;;;;;5028291;28;20036;-69
2023/03/04 04:27:52;;;;;;;106.43;50.27;;;5.90;99.90;;;;;;5027570;28;20033;-70
2023/03/04 04:30:17;;;;;;;101.00;49.17;;;5.90;99.90;;;;;;5027960;28;20113;-68
2023/03/04 04:32:43;;;;;;;109.10;50.73;;;5.90;99.90;;;;;;5028117;28;20114;-64
2023/03/04 04:35:09;;;;;;;103.60;49.57;;;5.90;99.90;;;;;;5027593;28;20026;-67
2023/03/04 04:37:34;;;;;;;103.87;50.30;;;5.80;99.90;;;;;;5027708;28;20157;-68
2023/03/04 04:40:00;;;;;;;119.83;54.60;;;5.90;99.90;;;;;;5027775;28;20105;-70
2023/03/04 04:42:26;;;;;;;105.60;50.20;;;5.90;99.90;;;;;;5028124;28;20030;-62
2023/03/04 04:44:51;;;;;;;104.03;49.42;;;5.90;99.90;;;;;;5027740;28;20042;-64
2023/03/04 04:47:17;;;;;;;113.33;51.63;;;5.80;99.90;;;;;;5027513;28;20041;-64
2023/03/04 04:49:43;;;;;;;105.70;51.65;;;5.80;99.90;;;;;;5027392;28;20495;-68
2023/03/04 04:52:09;;;;;;;111.35;50.85;;;5.90;99.90;;;;;;5026903;28;20029;-68
2023/03/04 04:54:35;;;;;;;103.37;50.63;;;5.70;99.90;;;;;;5019072;28;20026;-63
2023/03/04 04:57:00;;;;;;;104.00;48.50;;;5.80;99.90;;;;;;5007410;28;20030;-69
2023/03/04 04:59:26;;;;;;;104.30;51.53;;;5.90;99.90;;;;;;5017703;28;20124;-66
2023/03/04 05:01:52;;;;;;;104.83;51.27;;;5.80;99.90;;;;;;5023017;28;20037;-67
2023/03/04 05:04:17;;;;;;;111.47;50.80;;;5.80;99.90;;;;;;5021708;28;20037;-66
2023/03/04 05:06:44;;;;;;;107.47;49.40;;;5.80;99.90;;;;;;5023304;28;20051;-70
2023/03/04 05:09:10;;;;;;;110.82;50.17;;;5.90;99.90;;;;;;5025108;28;20145;-69
2023/03/04 05:11:36;;;;;;;113.53;52.63;;;5.90;99.90;;;;;;5022592;28;20461;-70
2023/03/04 05:14:02;;;;;;;111.47;51.97;;;5.90;99.90;;;;;;5024989;28;20037;-69
2023/03/04 05:16:27;;;;;;;98.93;47.13;;;5.90;99.90;;;;;;5025152;28;20110;-69
2023/03/04 05:18:53;;;;;;;105.10;50.57;;;5.80;99.90;;;;;;5029037;28;20367;-69
2023/03/04 05:21:19;;;;;;;103.73;52.60;;;5.80;99.90;;;;;;5029411;28;20056;-70
2023/03/04 05:23:44;;;;;;;105.37;51.60;;;5.80;99.90;;;;;;5029207;28;20406;-69
2023/03/04 05:26:14;;;;;;;109.97;51.70;;;5.80;99.90;;;;;;5029208;28;20548;-69
2023/03/04 05:28:40;;;;;;;105.93;52.22;;;5.80;99.90;;;;;;5029074;28;20057;-69
2023/03/04 05:31:06;;;;;;;99.40;48.10;;;5.90;99.90;;;;;;5029141;28;20119;-69
2023/03/04 05:33:31;;;;;;;110.53;53.25;;;5.80;99.90;;;;;;5029255;28;20551;-69
2023/03/04 05:35:57;;;;;;;116.73;53.03;;;5.80;99.90;;;;;;5029371;28;20770;-69
2023/03/04 05:38:24;;;;;;;106.57;52.50;;;5.80;99.90;;;;;;5029823;28;20280;-69
2023/03/04 05:40:58;;;;;;;110.75;52.40;;;5.80;99.90;;;;;;5029745;28;20196;-69
2023/03/04 05:43:25;;;;;;;110.88;53.67;;;5.80;99.90;;;;;;5029861;28;20044;-69
2023/03/04 05:45:51;;;;;;;105.95;50.08;;;5.80;99.90;;;;;;5029756;28;20048;-66
2023/03/04 05:48:16;;;;;;;118.00;52.63;;;5.80;99.90;;;;;;5029124;28;20440;-68
2023/03/04 05:50:42;;;;;;;117.33;54.03;;;5.80;99.90;;;;;;5029364;28;20100;-68
2023/03/04 05:53:07;;;;;;;110.40;53.90;;;5.90;99.90;;;;;;5028159;28;20038;-69
2023/03/04 05:55:33;;;;;;;110.73;54.03;;;5.80;99.90;;;;;;5029141;28;20158;-67
2023/03/04 05:57:59;;;;;;;105.43;51.80;;;5.80;99.90;;;;;;5029177;28;20029;-68
2023/03/04 06:00:25;;;;;;;110.23;53.47;;;5.80;99.90;;;;;;5029182;28;20288;-68
2023/03/04 06:02:51;;;;;;;112.22;52.90;;;5.80;99.90;;;;;;5028542;28;20497;-69
2023/03/04 06:05:17;;;;;;;111.40;53.40;;;5.80;99.90;;;;;;5028407;28;20045;-70
2023/03/04 06:07:43;;;;;;;121.57;52.63;;;5.90;99.90;;;;;;5028122;28;20042;-70
2023/03/04 06:10:11;;;;;;;107.85;52.75;;;5.90;99.90;;;;;;5028734;28;20088;-70
2023/03/04 06:12:37;;;;;;;116.60;54.47;;;5.80;99.90;;;;;;5027558;28;20026;-69
2023/03/04 06:15:04;;;;;;;116.50;54.53;;;5.90;99.90;;;;;;5028417;28;20543;-69
2023/03/04 06:17:32;;;;;;;114.75;55.03;;;5.80;99.90;;;;;;5028409;28;20041;-70
2023/03/04 06:19:58;;;;;;;105.68;51.20;;;5.80;99.90;;;;;;5027494;28;20033;-68
2023/03/04 06:22:23;;;;;;;111.15;52.38;;;5.80;99.90;;;;;;5027860;28;20034;-70
2023/03/04 06:24:49;;;;;;;116.87;55.33;;;5.80;99.90;;;;;;5028178;28;20029;-69
2023/03/04 06:27:15;;;;;;;114.57;55.47;;;5.80;99.90;;;;;;5028721;28;20033;-69
2023/03/04 06:29:41;;;;;;;114.22;55.67;;;5.90;99.90;;;;;;5028484;28;20021;-69
2023/03/04 06:32:06;;;;;;;110.63;53.37;;;5.80;99.90;;;;;;5028286;28;20049;-70
2023/03/04 06:34:32;;;;;;;111.33;54.10;;;5.80;99.90;;;;;;5028355;28;20037;-66
2023/03/04 06:36:58;;;;;;;117.95;55.67;;;5.80;99.90;;;;;;5028431;28;20441;-69
2023/03/04 06:39:25;;;;;;;112.70;55.65;;;5.80;99.90;;;;;;5028788;28;20072;-70
2023/03/04 06:41:51;;;;;;;116.55;54.60;;;5.80;99.90;;;;;;5027548;28;20029;-70
2023/03/04 06:44:17;;;;;;;111.53;53.22;;;5.80;99.90;;;;;;5028006;28;20056;-70
2023/03/04 06:46:42;;;;;;;107.30;53.63;;;5.80;99.90;;;;;;5026936;28;20042;-70
2023/03/04 06:49:08;;;;;;;116.40;53.57;;;5.80;99.90;;;;;;5026922;28;20088;-69
2023/03/04 06:51:34;;;;;;;114.15;53.63;;;5.70;99.90;;;;;;5027502;28;20061;-69
2023/03/04 06:54:00;;;;;;;113.43;54.58;;;5.80;99.90;;;;;;5023211;28;20018;-70
2023/03/04 06:56:25;;;;;;;107.17;51.83;;;5.80;99.90;;;;;;5022486;28;20720;-69
2023/03/04 06:58:51;;;;;;;102.83;51.17;;;5.80;99.90;;;;;;5027019;28;20087;-69
2023/03/04 07:01:23;;;;;;;117.53;54.03;;;5.80;99.90;;;;;;5026394;28;20373;-69
2023/03/04 07:03:50;;;;;;;116.75;51.50;;;5.80;99.90;;;;;;5026845;28;20115;-70
2023/03/04 07:06:18;;;;;;;115.68;54.30;;;5.80;99.90;;;;;;5021993;28;20087;-68
2023/03/04 07:08:44;;;;;;;113.25;53.70;;;5.90;99.90;;;;;;5027356;28;20036;-65
2023/03/04 07:11:10;;;;;;;117.47;56.75;;;5.90;99.90;;;;;;5027558;28;20029;-69
2023/03/04 07:13:39;;;;;;;107.70;52.88;;;5.90;99.90;;;;;;5027155;28;20037;-69
2023/03/04 07:16:07;;;;;;;114.03;53.17;;;5.90;99.90;;;;;;5026266;28;20044;-70
2023/03/04 07:18:33;;;;;;;112.30;54.80;;;5.90;99.90;;;;;;5027795;28;20557;-69
2023/03/04 07:20:58;;;;;;;111.03;52.10;;;5.90;99.90;;;;;;5027234;28;20029;-70
2023/03/04 07:23:24;;;;;;;116.07;54.93;;;5.90;99.90;;;;;;5027476;28;20713;-69
2023/03/04 07:25:50;;;;;;;118.80;54.57;;;6.00;99.90;;;;;;5027508;28;20041;-69
2023/03/04 07:28:17;;;;;;;107.68;54.33;;;6.00;99.90;;;;;;5025381;28;20490;-70
2023/03/04 07:30:43;;;;;;;108.50;55.45;;;5.90;99.90;;;;;;5025798;28;20044;-70
2023/03/04 07:33:09;;;;;;;111.32;55.08;;;6.00;99.90;;;;;;5026989;28;20033;-70
2023/03/04 07:35:35;;;;;;;119.00;55.55;;;5.90;99.90;;;;;;5024631;28;20547;-69
2023/03/04 07:38:00;;;;;;;112.57;55.67;;;6.00;99.90;;;;;;5026634;28;20025;-69
2023/03/04 07:40:26;;;;;;;110.23;53.03;;;6.00;99.90;;;;;;5026546;28;20770;-70
2023/03/04 07:42:53;;;;;;;113.10;54.38;;;5.90;99.90;;;;;;5025210;28;20037;-71
2023/03/04 07:45:19;;;;;;;113.57;53.33;;;6.00;99.90;;;;;;5025362;28;20230;-68
2023/03/04 07:47:45;;;;;;;129.90;55.27;;;6.00;99.90;;;;;;5025858;28;20657;-70
2023/03/04 07:50:11;;;;;;;111.35;52.85;;;6.10;99.90;;;;;;5025889;28;20156;-70
2023/03/04 07:52:38;;;;;;;115.40;56.65;;;6.00;99.90;;;;;;5021824;28;20034;-71
2023/03/04 07:55:04;;;;;;;110.13;54.35;;;6.00;99.90;;;;;;5025645;28;20029;-70
2023/03/04 07:57:30;;;;;;;107.32;51.80;;;6.00;99.90;;;;;;5025719;28;20021;-70
2023/03/04 07:59:56;;;;;;;107.97;52.80;;;6.00;99.90;;;;;;5026956;28;20399;-71
2023/03/04 08:02:21;;;;;;;107.43;50.53;;;6.10;99.90;;;;;;5026940;28;20033;-71
2023/03/04 08:04:47;;;;;;;107.90;51.83;;;6.10;99.90;;;;;;5022339;28;20254;-69
2023/03/04 08:07:12;;;;;;;117.77;53.03;;;6.10;99.90;;;;;;5026022;28;20036;-70
2023/03/04 08:09:38;;;;;;;112.43;53.57;;;6.10;99.90;;;;;;5025888;28;20037;-68
2023/03/04 08:12:04;;;;;;;112.03;55.43;;;6.10;99.90;;;;;;5024640;28;20025;-65
2023/03/04 08:14:30;;;;;;;106.28;53.22;;;6.10;99.90;;;;;;5025962;28;20437;-68
2023/03/04 08:16:55;;;;;;;107.47;54.67;;;6.10;99.90;;;;;;5025808;28;20052;-66
2023/03/04 08:19:21;;;;;;;109.77;52.93;;;6.10;99.90;;;;;;5025678;28;20489;-64
2023/03/04 08:21:47;;;;;;;112.10;54.53;;;6.10;99.90;;;;;;5025390;28;20044;-65
2023/03/04 08:24:12;;;;;;;111.40;53.37;;;6.10;99.90;;;;;;5025945;28;20280;-72
2023/03/04 08:26:42;;;;;;;111.18;54.20;;;6.30;99.90;;;;;;5023781;28;20055;-68
2023/03/04 08:29:10;;;;;;;110.80;55.20;;;6.30;99.90;;;;;;5026094;28;20246;-67
2023/03/04 08:31:37;;;;;;;118.05;56.55;;;6.30;99.90;;;;;;5023642;28;20142;-69
2023/03/04 08:34:03;;;;;;;113.70;54.50;;;6.40;99.90;;;;;;5025992;28;20500;-74
2023/03/04 08:36:29;;;;;;;116.47;55.08;;;6.50;99.90;;;;;;5025886;28;20104;-71
2023/03/04 08:38:55;;;;;;;114.77;56.00;;;6.50;99.90;;;;;;5025214;28;20360;-68
2023/03/04 08:41:21;;;;;;;112.63;53.47;;;6.60;99.90;;;;;;5026293;28;20025;-68
2023/03/04 08:43:47;;;;;;;;;;;6.60;99.90;;;;;;5023965;28;20512;-65
2023/03/04 08:46:12;;;;;;;108.28;52.65;;;6.60;99.90;;;;;;5026215;28;20019;-68
2023/03/04 08:48:38;;;;;;;116.25;53.50;;;6.60;99.90;;;;;;5024717;28;20469;-70
2023/03/04 08:51:12;;;;;;;114.73;53.00;;;6.70;99.90;;;;;;5022409;28;20033;-70
2023/03/04 08:53:38;;;;;;;104.25;51.97;;;6.90;99.90;;;;;;5025620;28;20033;-70
2023/03/04 08:56:04;;;;;;;102.63;51.53;;;6.90;99.90;;;;;;5025518;28;20043;-70
2023/03/04 08:58:30;;;;;;;98.10;47.58;;;6.90;99.90;;;;;;5025742;28;20037;-67
2023/03/04 09:00:57;;;;;;;94.70;45.30;;;6.90;99.90;;;;;;5024299;28;20366;-68
2023/03/04 09:03:23;;;;;;;100.93;50.00;;;7.00;99.90;;;;;;5025151;28;20532;-70
2023/03/04 09:05:48;;;;;;;104.30;47.87;;;7.10;99.90;;;;;;5023561;28;20029;-70
2023/03/04 09:08:15;;;;;;;98.60;50.07;;;7.20;99.90;;;;;;5024263;28;20101;-67
2023/03/04 09:10:40;;;;;;;;;;;7.20;99.90;;;;;;5022785;28;20025;-70
2023/03/04 09:13:10;;;;;;;100.10;49.85;;;7.40;99.90;;;;;;5024157;28;19913;-68
2023/03/04 09:15:36;;;;;;;97.93;47.72;;;7.40;99.90;;;;;;5024945;28;20124;-70
2023/03/04 09:18:04;;;;;;;102.07;46.17;;;7.50;99.90;;;;;;5024763;28;20025;-72
2023/03/04 09:20:31;;;;;;;99.55;49.85;;;7.40;99.90;;;;;;5025472;28;20025;-71
2023/03/04 09:22:57;;;;;;;95.38;47.55;;;7.50;99.90;;;;;;5021788;28;20025;-68
2023/03/04 09:25:22;;;;;;;97.35;46.83;;;7.60;99.90;;;;;;5023761;28;20038;-67
2023/03/04 09:27:48;;;;;;;99.30;47.90;;;7.60;99.90;;;;;;5025470;28;20453;-69
2023/03/04 09:30:13;;;;;;;99.93;49.13;;;7.70;99.90;;;;;;5024211;28;20651;-65
2023/03/04 09:32:40;;;;;;;96.23;47.27;;;7.80;99.90;;;;;;5022873;28;20037;-69
2023/03/04 09:35:06;;;;;;;97.72;46.70;;;7.90;99.90;;;;;;5023663;28;20405;-72
2023/03/04 09:37:32;;;;;;;97.55;48.20;;;7.90;99.90;;;;;;5025072;28;20685;-68
2023/03/04 09:39:57;;;;;;;88.27;44.67;;;8.00;99.90;;;;;;5025399;28;20084;-70
2023/03/04 09:42:33;;;;;;;95.80;46.60;;;8.20;99.90;;;;;;5023260;28;20033;-71
2023/03/04 09:45:00;;;;;;;97.43;49.08;;;8.30;99.90;;;;;;5023324;28;20105;-72
2023/03/04 09:47:26;;;;;;;;;;;8.50;99.90;;;;;;5023549;28;20093;-70
2023/03/04 09:49:57;;;;;;;82.68;44.47;;;8.60;99.90;;;;;;5023378;28;20369;-70
2023/03/04 09:52:43;;;;;;;92.20;47.78;;;8.70;99.90;;;;;;5024408;28;20478;-65
2023/03/04 09:55:21;;;;;;;80.43;43.63;;;9.00;99.90;;;;;;5025450;28;20425;-71
2023/03/04 09:58:23;;;;;;;83.47;42.95;;;9.10;99.90;;;;;;5025234;28;20030;-69
2023/03/04 10:01:25;;;;;;;80.35;45.38;;;9.00;99.90;;;;;;5024509;28;20052;-69
2023/03/04 10:03:57;;;;;;;83.47;43.28;;;9.10;99.80;;;;;;5026740;28;20030;-70
2023/03/04 10:06:23;;;;;;;85.57;45.47;;;9.20;99.20;;;;;;5028029;28;20076;-72
2023/03/04 10:08:48;;;;;;;81.53;46.08;;;9.20;99.40;;;;;;5027565;28;20037;-68
2023/03/04 10:11:20;;;;;;;85.57;44.93;;;9.20;99.50;;;;;;5027369;28;20040;-68
2023/03/04 10:14:07;;;;;;;83.70;43.42;;;9.20;99.80;;;;;;5027860;28;20183;-65
2023/03/04 10:16:41;;;;;;;88.70;44.30;;;9.20;99.80;;;;;;5025311;28;20029;-69
2023/03/04 10:19:26;;;;;;;94.55;47.40;;;9.20;99.30;;;;;;5028394;28;20033;-67
2023/03/04 10:21:52;;;;;;;92.95;46.15;;;9.30;99.20;;;;;;5026636;28;20033;-69
2023/03/04 10:24:27;;;;;;;83.67;45.03;;;9.40;98.80;;;;;;5028608;28;20033;-67
2023/03/04 10:26:56;;;;;;;83.50;43.80;;;9.50;98.60;;;;;;5026147;28;20037;-67
2023/03/04 10:29:23;;;;;;;84.57;45.53;;;9.20;98.80;;;;;;5027925;28;20033;-69
2023/03/04 10:31:49;;;;;;;;;;;9.30;98.90;;;;;;5027497;28;20045;-67
2023/03/04 10:34:16;;;;;;;83.25;43.88;;;9.40;98.50;;;;;;5026555;28;19963;-67
2023/03/04 10:37:05;;;;;;;84.45;45.10;;;9.60;98.50;;;;;;5023026;28;20032;-65
2023/03/04 10:39:43;;;;;;;83.93;45.13;;;9.70;98.30;;;;;;5025231;28;20029;-66
2023/03/04 10:42:15;;;;;;;91.32;45.75;;;9.80;98.30;;;;;;5026938;28;20038;-64
2023/03/04 10:44:43;;;;;;;84.10;44.72;;;10.00;97.70;;;;;;5027108;28;20040;-67
2023/03/04 10:47:10;;;;;;;87.60;44.47;;;10.00;97.50;;;;;;5027546;28;20033;-64
2023/03/04 10:49:51;;;;;;;85.00;45.88;;;10.10;97.60;;;;;;5027526;28;20080;-69
2023/03/04 10:52:31;;;;;;;93.43;45.92;;;10.30;97.10;;;;;;5026143;28;20064;-69
2023/03/04 10:55:05;;;;;;;81.53;44.05;;;10.30;96.60;;;;;;5027436;28;20521;-67
2023/03/04 10:57:35;;;;;;;86.35;45.42;;;10.20;96.60;;;;;;5027148;28;20049;-70
2023/03/04 11:00:25;;;;;;;78.10;43.42;;;10.40;96.70;;;;;;5025072;28;20037;-68
2023/03/04 11:02:50;;;;;;;84.80;44.25;;;10.50;96.60;;;;;;5012781;28;20064;-64
2023/03/04 11:05:30;;;;;;;79.67;44.53;;;10.80;96.70;;;;;;5026412;28;20501;-62
2023/03/04 11:07:59;;;;;;;82.85;43.47;;;10.80;96.30;;;;;;5023066;28;20222;-68
2023/03/04 11:10:35;;;;;;;89.25;43.75;;;11.00;95.90;;;;;;5022700;28;20030;-65
2023/03/04 11:13:10;;;;;;;80.13;43.78;;;11.00;95.90;;;;;;5025725;28;20040;-70
2023/03/04 11:15:53;;;;;;;82.40;45.47;;;11.20;95.70;;;;;;5026202;28;20034;-68
2023/03/04 11:18:51;;;;;;;83.95;44.45;;;11.00;96.30;;;;;;5026688;28;20037;-71
2023/03/04 11:21:27;;;;;;;84.07;43.97;;;11.00;95.80;;;;;;5015206;28;20037;-70
2023/03/04 11:24:20;;;;;;;86.70;46.97;;;11.10;95.80;;;;;;5026333;28;20029;-70
2023/03/04 11:26:54;;;;;;;84.03;44.40;;;11.10;95.30;;;;;;5019761;28;20054;-69
2023/03/04 11:29:37;;;;;;;78.82;43.47;;;10.90;95.70;;;;;;5026816;28;20034;-69
2023/03/04 11:32:25;;;;;;;85.32;45.15;;;10.90;95.90;;;;;;5027001;28;20037;-68
2023/03/04 11:35:19;;;;;;;81.40;44.03;;;11.00;95.80;;;;;;5026501;28;20075;-68
2023/03/04 11:38:15;;;;;;;83.85;43.88;;;11.10;95.30;;;;;;5026112;28;20772;-69
2023/03/04 11:40:53;;;;;;;78.00;44.38;;;11.30;95.50;;;;;;5025599;28;20033;-65
2023/03/04 11:43:36;;;;;;;80.50;43.38;;;11.20;94.30;;;;;;5026307;28;20108;-69
2023/03/04 11:46:26;;;;;;;86.95;44.90;;;11.30;95.00;;;;;;5026463;28;20126;-73
2023/03/04 11:49:28;;;;;;;82.40;43.97;;;11.40;95.20;;;;;;5024576;28;20112;-66
2023/03/04 11:52:17;;;;;;;80.53;43.20;;;11.10;94.40;;;;;;5024661;28;20083;-62
2023/03/04 11:55:07;;;;;;;86.93;45.35;;;11.40;94.90;;;;;;5014402;28;20565;-69
2023/03/04 11:58:00;;;;;;;83.57;44.70;;;11.30;94.90;;;;;;5025642;28;20061;-72
2023/03/04 12:00:46;;;;;;;86.60;44.65;;;11.60;94.10;;;;;;5024116;28;20116;-68
2023/03/04 12:03:42;;;;;;;84.53;44.60;;;11.50;94.70;;;;;;5025223;28;20429;-64
2023/03/04 12:06:38;;;;;;;80.15;41.75;;;11.60;94.70;;;;;;5025860;28;20130;-71
2023/03/04 12:09:30;;;;;;;80.28;42.80;;;11.50;94.60;;;;;;5024937;28;20032;-64
2023/03/04 12:12:17;;;;;;;79.20;42.97;;;11.40;93.70;;;;;;5022838;28;20718;-66
2023/03/04 12:15:01;;;;;;;86.35;44.78;;;11.60;94.70;;;;;;5021573;28;20485;-69
2023/03/04 12:17:58;;;;;;;79.35;43.90;;;11.60;93.90;;;;;;5021901;28;20033;-64
2023/03/04 12:20:23;;;;;;;78.97;42.25;;;11.40;94.30;;;;;;5024891;28;20434;-70
2023/03/04 12:23:12;;;;;;;80.47;41.80;;;11.50;94.40;;;;;;5025616;28;20548;-65
2023/03/04 12:25:49;;;;;;;77.38;42.20;;;11.60;94.30;;;;;;5025463;28;20037;-68
2023/03/04 12:28:21;;;;;;;;;;;11.70;94.20;;;;;;5024149;28;20091;-71
2023/03/04 12:31:09;;;;;;;78.80;42.10;;;11.60;94.10;;;;;;5024230;28;19913;-70
2023/03/04 12:34:10;;;;;;;74.35;41.55;;;11.50;94.60;;;;;;5025367;28;20469;-70
2023/03/04 12:37:00;;;;;;;76.68;41.08;;;11.50;93.90;;;;;;5004600;28;20041;-70
2023/03/04 12:39:32;;;;;;;73.05;40.58;;;11.50;93.60;;;;;;5025129;28;20033;-69
2023/03/04 12:42:09;;;;;;;77.28;42.20;;;11.80;93.20;;;;;;5024347;28;20037;-71